Time;durP1;ratioP1;P1;durP2;ratioP2;P2;SDS_P1;SDS_P2;PMS_P1;PMS_P2;Temp;Humidity;BMP_temperature;BMP_pressure;BME280_temperature;BME280_humidity;BME280_pressure;Samples;Min_cycle;Max_cycle;Signal;HPM_P1;HPM_P2
2023/04/20 00:00:16;;;;;;;4.93;2.90;;;21.10;60.20;;;;;;4990458;28;86961;-85
2023/04/20 00:02:42;;;;;;;4.50;2.42;;;21.00;60.00;;;;;;4989139;28;87908;-85
2023/04/20 00:05:09;;;;;;;4.05;2.60;;;21.00;60.00;;;;;;4990313;28;88565;-85
2023/04/20 00:07:35;;;;;;;6.05;2.90;;;21.00;59.90;;;;;;4990829;28;87606;-85
2023/04/20 00:10:02;;;;;;;5.57;2.88;;;21.00;59.90;;;;;;5006559;28;90800;-85
2023/04/20 00:12:28;;;;;;;4.30;2.70;;;21.00;60.10;;;;;;4989495;28;93734;-85
2023/04/20 00:14:55;;;;;;;4.75;2.38;;;21.00;60.20;;;;;;4992063;28;86696;-85
2023/04/20 00:17:20;;;;;;;4.43;2.50;;;20.90;60.20;;;;;;4989272;28;87033;-85
2023/04/20 00:19:46;;;;;;;4.28;2.60;;;21.00;60.20;;;;;;4989602;28;87640;-85
2023/04/20 00:22:18;;;;;;;5.15;2.83;;;20.90;59.90;;;;;;4989088;28;89413;-85
2023/04/20 00:24:44;;;;;;;3.65;2.72;;;20.90;59.90;;;;;;4989352;28;89701;-85
2023/04/20 00:27:10;;;;;;;4.30;2.78;;;20.90;60.10;;;;;;4990070;28;86882;-84
2023/04/20 00:29:36;;;;;;;5.20;2.78;;;20.90;60.20;;;;;;5005043;28;90842;-85
2023/04/20 00:32:01;;;;;;;5.30;2.67;;;20.90;60.00;;;;;;4989766;28;88685;-85
2023/04/20 00:34:27;;;;;;;4.28;2.67;;;20.90;60.20;;;;;;4989607;28;88019;-84
2023/04/20 00:36:52;;;;;;;4.03;2.63;;;20.90;60.10;;;;;;5006204;28;87217;-86
2023/04/20 00:39:18;;;;;;;4.07;2.58;;;20.90;59.90;;;;;;4988666;28;86229;-85
2023/04/20 00:45:07;;;;;;;4.57;3.15;;;20.80;59.90;;;;;;4988467;28;87005;-85
2023/04/20 00:47:32;;;;;;;5.32;3.10;;;20.80;60.00;;;;;;4990450;28;87863;-85
2023/04/20 00:49:58;;;;;;;5.68;2.85;;;20.80;59.90;;;;;;4988792;28;87115;-85
2023/04/20 00:52:24;;;;;;;4.88;2.58;;;20.80;60.00;;;;;;4989059;28;87892;-85
2023/04/20 00:54:49;;;;;;;4.78;2.80;;;20.80;60.00;;;;;;4988856;28;87478;-85
2023/04/20 00:57:22;;;;;;;3.53;2.65;;;20.80;60.10;;;;;;4990542;28;87364;-84
2023/04/20 00:59:49;;;;;;;6.18;3.25;;;20.80;60.00;;;;;;4989048;28;87029;-85
2023/04/20 01:02:15;;;;;;;4.97;2.35;;;20.80;60.00;;;;;;4989518;28;91295;-85
2023/04/20 01:04:40;;;;;;;4.57;2.50;;;20.80;60.10;;;;;;5005507;28;91438;-85
2023/04/20 01:07:06;;;;;;;5.05;2.75;;;20.70;59.90;;;;;;5006857;28;87401;-85
2023/04/20 01:09:32;;;;;;;4.00;2.67;;;20.70;59.90;;;;;;4989234;28;87189;-85
2023/04/20 01:11:57;;;;;;;6.00;2.63;;;20.70;59.90;;;;;;4986474;28;88212;-85
2023/04/20 01:14:23;;;;;;;4.07;2.83;;;20.70;60.00;;;;;;4990396;28;89390;-84
2023/04/20 01:16:50;;;;;;;3.67;2.35;;;20.70;60.00;;;;;;4990690;28;86954;-85
2023/04/20 01:19:16;;;;;;;3.28;2.40;;;20.70;60.00;;;;;;4989069;28;86936;-85
2023/04/20 01:21:42;;;;;;;4.20;2.30;;;20.70;60.00;;;;;;4990997;28;88698;-85
2023/04/20 01:24:07;;;;;;;4.15;2.55;;;20.60;60.30;;;;;;5004372;28;91320;-84
2023/04/20 01:26:33;;;;;;;4.90;2.90;;;20.70;60.40;;;;;;5004007;28;87499;-85
2023/04/20 01:35:43;;;;;;;3.70;2.40;;;20.60;60.00;;;;;;4992017;28;88574;-85
2023/04/20 01:38:08;;;;;;;4.68;2.30;;;20.60;60.10;;;;;;4992892;28;88162;-84
2023/04/20 01:40:34;;;;;;;5.22;2.90;;;20.60;59.90;;;;;;4993052;28;87504;-85
2023/04/20 01:43:00;;;;;;;3.72;2.33;;;20.60;60.20;;;;;;5008094;28;89229;-85
2023/04/20 01:45:25;;;;;;;3.63;2.55;;;20.60;60.10;;;;;;4992876;28;88077;-85
2023/04/20 01:47:51;;;;;;;3.85;2.42;;;20.60;60.20;;;;;;5009174;28;87593;-85
2023/04/20 01:53:41;;;;;;;4.63;2.58;;;20.60;60.00;;;;;;4992020;28;87539;-85
2023/04/20 01:56:07;;;;;;;4.57;2.45;;;20.50;60.30;;;;;;5006103;28;89082;-85
2023/04/20 01:58:33;;;;;;;4.07;2.25;;;20.50;60.00;;;;;;5007075;28;87393;-85
2023/04/20 02:01:01;;;;;;;3.03;2.47;;;20.50;60.30;;;;;;5009147;28;90453;-84
2023/04/20 02:03:26;;;;;;;3.42;2.45;;;20.50;60.10;;;;;;4992123;28;89688;-85
2023/04/20 02:09:20;;;;;;;3.28;2.38;;;20.50;60.10;;;;;;4994213;28;86962;-85
2023/04/20 02:11:46;;;;;;;3.35;2.38;;;20.50;60.20;;;;;;4991917;28;87166;-85
2023/04/20 02:14:11;;;;;;;3.45;2.60;;;20.50;59.90;;;;;;4992934;28;87419;-85
2023/04/20 02:16:37;;;;;;;2.92;2.03;;;20.50;59.90;;;;;;4990993;28;87467;-85
2023/04/20 02:19:03;;;;;;;4.88;2.38;;;20.50;59.80;;;;;;5006808;28;87320;-85
2023/04/20 02:21:28;;;;;;;2.75;2.05;;;20.50;59.80;;;;;;4993911;28;86691;-85
2023/04/20 02:23:54;;;;;;;5.65;2.78;;;20.50;60.00;;;;;;4991543;28;88168;-85
2023/04/20 02:26:26;;;;;;;3.50;2.25;;;20.50;59.90;;;;;;4993134;28;88696;-84
2023/04/20 02:28:51;;;;;;;3.95;2.45;;;20.50;59.90;;;;;;4990783;28;88416;-84
2023/04/20 02:31:17;;;;;;;3.88;2.40;;;20.40;59.80;;;;;;5007563;28;92376;-84
2023/04/20 02:33:43;;;;;;;3.28;2.10;;;20.40;60.00;;;;;;4991934;28;88561;-85
2023/04/20 02:36:09;;;;;;;3.25;2.10;;;20.40;59.90;;;;;;4993084;28;88523;-84
2023/04/20 02:38:34;;;;;;;2.78;1.88;;;20.40;60.00;;;;;;4991068;28;87017;-85
2023/04/20 02:41:00;;;;;;;3.20;2.20;;;20.40;60.10;;;;;;4993065;28;87568;-85
2023/04/20 02:43:26;;;;;;;4.63;2.53;;;20.40;60.00;;;;;;5006121;28;90164;-85
2023/04/20 02:45:51;;;;;;;3.38;2.20;;;20.40;60.10;;;;;;5008296;28;90811;-84
2023/04/20 02:48:17;;;;;;;4.25;2.30;;;20.40;60.10;;;;;;5005341;28;87131;-84
2023/04/20 02:50:43;;;;;;;3.50;2.42;;;20.40;60.00;;;;;;4991979;28;88659;-85
2023/04/20 02:53:08;;;;;;;1.92;1.75;;;20.40;60.10;;;;;;4992350;28;89158;-85
2023/04/20 02:55:34;;;;;;;3.47;2.13;;;20.40;60.30;;;;;;4992311;28;89322;-85
2023/04/20 02:57:59;;;;;;;3.15;2.63;;;20.40;60.10;;;;;;4992719;28;86848;-85
2023/04/20 03:00:25;;;;;;;3.53;2.28;;;20.40;60.00;;;;;;5006922;28;90424;-85
2023/04/20 03:02:51;;;;;;;3.53;2.35;;;20.40;60.00;;;;;;4990215;28;88390;-84
2023/04/20 03:05:16;;;;;;;4.45;2.13;;;20.40;60.00;;;;;;4991618;28;88336;-85
2023/04/20 03:07:42;;;;;;;4.25;2.20;;;20.30;59.90;;;;;;5005668;28;87787;-85
2023/04/20 03:10:08;;;;;;;2.60;2.28;;;20.30;60.00;;;;;;5005732;28;90636;-84
2023/04/20 03:12:34;;;;;;;2.63;2.08;;;20.30;59.90;;;;;;4992474;28;94076;-84
2023/04/20 03:15:00;;;;;;;3.67;2.17;;;20.30;59.90;;;;;;5007517;28;91157;-85
2023/04/20 03:24:25;;;;;;;3.03;2.10;;;20.30;59.90;;;;;;4990364;28;87450;-84
2023/04/20 03:26:50;;;;;;;2.65;2.10;;;20.30;59.80;;;;;;4990345;28;88050;-85
2023/04/20 03:29:16;;;;;;;3.22;2.00;;;20.30;59.80;;;;;;4991669;28;87484;-84
2023/04/20 03:31:42;;;;;;;2.28;1.80;;;20.30;60.00;;;;;;4989279;28;87465;-84
2023/04/20 03:34:07;;;;;;;3.00;2.30;;;20.30;59.80;;;;;;4990089;28;87543;-84
2023/04/20 03:36:33;;;;;;;2.53;2.15;;;20.30;59.80;;;;;;5006180;28;93777;-85
2023/04/20 03:38:58;;;;;;;2.55;2.05;;;20.20;59.70;;;;;;4992222;28;86833;-84
2023/04/20 03:41:24;;;;;;;3.55;2.38;;;20.20;59.80;;;;;;4991969;28;87490;-85
2023/04/20 03:43:50;;;;;;;2.78;2.00;;;20.20;59.80;;;;;;4989313;28;89412;-84
2023/04/20 03:46:15;;;;;;;4.80;2.58;;;20.20;59.90;;;;;;4990798;28;89199;-84
2023/04/20 03:48:41;;;;;;;2.85;2.20;;;20.20;59.80;;;;;;4990123;28;87212;-84
2023/04/20 03:51:07;;;;;;;3.63;2.28;;;20.20;59.60;;;;;;5004502;28;90779;-84
2023/04/20 03:53:34;;;;;;;4.05;2.42;;;20.20;59.70;;;;;;5004436;28;91037;-85
2023/04/20 03:55:59;;;;;;;2.50;1.90;;;20.20;59.70;;;;;;4990806;28;88070;-85
2023/04/20 03:58:25;;;;;;;4.88;2.20;;;20.20;59.80;;;;;;4988878;28;87607;-85
2023/04/20 04:00:51;;;;;;;3.72;2.10;;;20.20;59.80;;;;;;4968750;28;89647;-84
2023/04/20 04:03:16;;;;;;;4.10;2.45;;;20.20;59.80;;;;;;4967528;28;88614;-84
2023/04/20 04:05:42;;;;;;;3.80;2.50;;;20.10;59.70;;;;;;4968314;28;87372;-86
2023/04/20 04:08:08;;;;;;;2.65;2.03;;;20.10;59.90;;;;;;4966239;28;88441;-84
2023/04/20 04:10:33;;;;;;;3.65;2.28;;;20.10;59.80;;;;;;4968587;28;87532;-85
2023/04/20 04:12:59;;;;;;;4.05;2.53;;;20.10;59.70;;;;;;4969558;28;88689;-84
2023/04/20 04:15:25;;;;;;;3.10;2.25;;;20.10;59.70;;;;;;4967641;28;87209;-84
2023/04/20 04:17:53;;;;;;;2.13;1.92;;;20.10;59.80;;;;;;4959088;28;87000;-85
2023/04/20 04:20:19;;;;;;;3.25;2.05;;;20.10;59.80;;;;;;4968373;28;87450;-85
2023/04/20 04:22:44;;;;;;;3.35;2.13;;;20.10;60.00;;;;;;4967629;28;88503;-85
2023/04/20 04:25:10;;;;;;;4.63;2.22;;;20.10;59.80;;;;;;4967579;28;88061;-86
2023/04/20 04:27:38;;;;;;;4.03;2.42;;;20.10;59.80;;;;;;4968649;28;87649;-84
2023/04/20 04:30:04;;;;;;;3.10;2.20;;;20.10;59.90;;;;;;4967716;28;87861;-85
2023/04/20 04:32:33;;;;;;;3.17;2.25;;;20.10;59.80;;;;;;4985084;28;89646;-85
2023/04/20 04:34:59;;;;;;;3.90;2.40;;;20.10;59.50;;;;;;5005152;28;92315;-85
2023/04/20 04:37:26;;;;;;;3.08;2.22;;;20.10;59.70;;;;;;4991020;28;87078;-85
2023/04/20 04:39:52;;;;;;;3.65;2.10;;;20.10;59.90;;;;;;4992096;28;87489;-86
2023/04/20 04:42:18;;;;;;;2.88;2.10;;;20.10;59.70;;;;;;4996371;28;88969;-85
2023/04/20 04:44:43;;;;;;;3.40;2.25;;;20.10;60.00;;;;;;5002477;28;90405;-85
2023/04/20 04:47:10;;;;;;;3.33;2.10;;;20.10;59.80;;;;;;4989343;28;87274;-85
2023/04/20 04:49:36;;;;;;;4.15;2.42;;;20.10;59.80;;;;;;4990353;28;90843;-85
2023/04/20 04:52:02;;;;;;;4.30;2.20;;;20.10;59.90;;;;;;4990693;28;87008;-85
2023/04/20 04:54:28;;;;;;;2.92;2.10;;;20.10;59.90;;;;;;4990834;28;87307;-87
2023/04/20 04:56:53;;;;;;;2.67;2.00;;;20.10;59.90;;;;;;5002540;28;88240;-84
2023/04/20 04:59:19;;;;;;;3.55;2.30;;;20.10;59.60;;;;;;4985855;28;90506;-86
2023/04/20 05:01:45;;;;;;;3.42;2.28;;;20.10;59.60;;;;;;4988973;28;88453;-84
2023/04/20 05:04:10;;;;;;;2.25;1.90;;;20.10;59.80;;;;;;4989324;28;87410;-86
2023/04/20 05:10:04;;;;;;;3.30;2.25;;;20.10;59.70;;;;;;4993390;28;90353;-86
2023/04/20 05:12:30;;;;;;;2.60;1.85;;;20.20;59.60;;;;;;4991326;28;88734;-85
2023/04/20 05:14:55;;;;;;;2.38;1.80;;;20.30;59.40;;;;;;4994520;28;87449;-88
2023/04/20 05:17:21;;;;;;;2.40;2.00;;;20.40;59.60;;;;;;4993718;28;87604;-86
2023/04/20 05:19:47;;;;;;;2.90;2.08;;;20.50;59.30;;;;;;4993451;28;87287;-86
2023/04/20 05:22:14;;;;;;;3.78;2.30;;;20.50;59.30;;;;;;4992612;28;89665;-88
2023/04/20 05:24:41;;;;;;;3.05;2.15;;;20.60;59.10;;;;;;4993423;28;88901;-86
2023/04/20 05:27:06;;;;;;;2.80;2.03;;;20.60;58.90;;;;;;4993714;28;87385;-86
2023/04/20 05:29:32;;;;;;;2.22;2.03;;;20.70;58.80;;;;;;4993560;28;87135;-85
2023/04/20 05:31:58;;;;;;;2.72;1.92;;;20.70;59.10;;;;;;4992375;28;93395;-86
2023/04/20 05:34:23;;;;;;;2.80;2.08;;;20.60;59.00;;;;;;4993930;28;88016;-86
2023/04/20 05:36:50;;;;;;;4.05;2.15;;;20.60;59.00;;;;;;4993332;28;87342;-86
2023/04/20 05:39:16;;;;;;;3.65;2.08;;;20.60;59.00;;;;;;4993577;28;86960;-86
2023/04/20 05:41:42;;;;;;;3.25;2.25;;;20.50;59.10;;;;;;4991888;28;87670;-86
2023/04/20 05:44:07;;;;;;;3.78;2.00;;;20.50;59.10;;;;;;4990930;28;88149;-87
2023/04/20 05:46:33;;;;;;;2.15;1.95;;;20.50;59.20;;;;;;4990811;28;87805;-86
2023/04/20 05:48:58;;;;;;;3.10;2.17;;;20.50;59.10;;;;;;4999430;28;89830;-87
2023/04/20 05:51:27;;;;;;;3.08;2.53;;;20.40;59.10;;;;;;4992924;28;88124;-86
2023/04/20 05:53:53;;;;;;;2.50;1.88;;;20.40;59.30;;;;;;4991867;28;87384;-86
2023/04/20 05:56:19;;;;;;;4.38;2.22;;;20.40;59.30;;;;;;4992575;28;87471;-86
2023/04/20 05:58:45;;;;;;;3.17;2.20;;;20.40;59.30;;;;;;4991827;28;87398;-86
2023/04/20 06:01:11;;;;;;;2.67;2.22;;;20.40;59.30;;;;;;4990733;28;90583;-86
2023/04/20 06:03:36;;;;;;;2.53;1.90;;;20.40;59.40;;;;;;4991307;28;88344;-87
2023/04/20 06:06:02;;;;;;;2.80;1.88;;;20.30;59.40;;;;;;4989055;28;86996;-86
2023/04/20 06:08:28;;;;;;;3.78;2.17;;;20.30;59.30;;;;;;4990237;28;87438;-87
2023/04/20 06:10:57;;;;;;;2.05;1.77;;;20.30;59.20;;;;;;4988575;28;89623;-86
2023/04/20 06:13:23;;;;;;;2.80;2.28;;;20.30;59.40;;;;;;4987409;28;89210;-86
2023/04/20 06:15:49;;;;;;;2.78;2.03;;;20.30;59.50;;;;;;4990872;28;87045;-86
2023/04/20 06:18:15;;;;;;;2.42;1.90;;;20.30;59.50;;;;;;4991931;28;88511;-87
2023/04/20 06:20:43;;;;;;;3.20;1.90;;;20.30;59.40;;;;;;4991085;28;87665;-87
2023/04/20 06:23:08;;;;;;;2.50;1.80;;;20.30;59.40;;;;;;5005733;28;89939;-87
2023/04/20 06:29:08;;;;;;;3.65;1.83;;;20.30;59.20;;;;;;4992924;28;86575;-86
2023/04/20 06:31:34;;;;;;;2.45;2.03;;;20.30;59.10;;;;;;4989962;28;90302;-87
2023/04/20 06:34:00;;;;;;;2.95;1.88;;;20.30;59.20;;;;;;4992054;28;87000;-86
2023/04/20 06:36:27;;;;;;;5.70;2.53;;;20.40;59.00;;;;;;4991198;28;88489;-83
2023/04/20 06:38:53;;;;;;;3.22;1.90;;;20.50;58.70;;;;;;4990847;28;87980;-87
2023/04/20 06:41:19;;;;;;;1.92;1.58;;;20.50;58.60;;;;;;5006312;28;92099;-87
2023/04/20 06:43:45;;;;;;;3.33;2.08;;;20.60;58.60;;;;;;5000451;28;88047;-85
2023/04/20 06:46:11;;;;;;;24.95;5.25;;;20.60;58.60;;;;;;5009410;28;87404;-86
2023/04/20 06:48:36;;;;;;;16.27;3.97;;;20.60;58.30;;;;;;5009815;28;87597;-85
2023/04/20 06:51:02;;;;;;;11.40;4.05;;;20.60;59.40;;;;;;5007228;28;88225;-89
2023/04/20 06:53:27;;;;;;;7.43;2.58;;;20.60;58.80;;;;;;5010346;28;89964;-84
2023/04/20 06:55:54;;;;;;;10.07;3.63;;;20.60;59.00;;;;;;5009468;28;87604;-86
2023/04/20 06:58:20;;;;;;;8.88;3.28;;;20.60;59.00;;;;;;4992659;28;90659;-87
2023/04/20 07:00:46;;;;;;;8.95;3.42;;;20.70;59.20;;;;;;5009345;28;89141;-87
2023/04/20 07:03:12;;;;;;;13.15;4.20;;;20.60;59.10;;;;;;4998846;28;88037;-84
2023/04/20 07:05:37;;;;;;;11.95;3.83;;;20.60;59.00;;;;;;5006413;28;87407;-88
2023/04/20 07:08:03;;;;;;;13.38;3.58;;;20.60;59.20;;;;;;5008196;28;89595;-86
2023/04/20 07:10:29;;;;;;;14.65;4.13;;;20.60;59.40;;;;;;4991220;28;91987;-82
2023/04/20 07:12:54;;;;;;;18.67;4.80;;;20.60;59.20;;;;;;4995962;28;87817;-83
2023/04/20 07:15:21;;;;;;;16.80;4.82;;;20.60;61.30;;;;;;4992199;28;86818;-81
2023/04/20 07:17:47;;;;;;;13.40;4.45;;;20.50;62.70;;;;;;4987734;28;88023;-85
2023/04/20 07:20:13;;;;;;;14.27;4.07;;;20.60;61.70;;;;;;4990158;28;87889;-88
2023/04/20 07:22:38;;;;;;;13.68;4.97;;;20.50;62.90;;;;;;4993896;28;88276;-87
2023/04/20 07:25:06;;;;;;;10.85;4.45;;;20.50;63.00;;;;;;4995031;28;87991;-86
2023/04/20 07:27:37;;;;;;;12.52;4.43;;;20.40;62.20;;;;;;4991607;28;87874;-87
2023/04/20 07:30:05;;;;;;;11.50;3.72;;;20.40;62.60;;;;;;5002769;28;90212;-88
2023/04/20 07:32:32;;;;;;;9.43;3.95;;;20.30;62.30;;;;;;5008301;28;89497;-85
2023/04/20 07:34:58;;;;;;;13.23;4.15;;;20.40;62.20;;;;;;4986654;28;87666;-86
2023/04/20 07:37:24;;;;;;;13.88;4.20;;;20.30;61.90;;;;;;4982129;28;87581;-87
2023/04/20 07:39:52;;;;;;;12.60;4.63;;;20.40;62.30;;;;;;4974205;28;92474;-88
2023/04/20 07:42:21;;;;;;;11.68;4.25;;;20.40;61.60;;;;;;4989628;28;88494;-89
2023/04/20 07:44:47;;;;;;;14.55;4.43;;;20.50;61.00;;;;;;4988420;28;87088;-88
2023/04/20 07:47:13;;;;;;;10.82;3.95;;;20.60;60.30;;;;;;4988562;28;88477;-87
2023/04/20 07:49:40;;;;;;;12.20;4.10;;;20.70;60.00;;;;;;4986587;28;89440;-87
2023/04/20 07:52:09;;;;;;;9.75;3.65;;;20.70;60.30;;;;;;4988282;28;91501;-86
2023/04/20 07:54:34;;;;;;;13.32;3.83;;;20.60;60.50;;;;;;4987438;28;87392;-86
2023/04/20 07:57:02;;;;;;;15.48;5.05;;;20.60;60.00;;;;;;4987431;28;87117;-86
2023/04/20 07:59:28;;;;;;;11.63;4.70;;;20.60;59.20;;;;;;4971124;28;91639;-84
2023/04/20 08:01:59;;;;;;;11.18;4.40;;;20.60;59.30;;;;;;4986987;28;87531;-85
2023/04/20 08:04:25;;;;;;;11.48;4.32;;;20.60;59.60;;;;;;4988219;28;86971;-88
2023/04/20 08:06:50;;;;;;;14.57;4.60;;;20.60;59.70;;;;;;4986224;28;89413;-85
2023/04/20 08:09:16;;;;;;;14.85;4.93;;;20.60;59.90;;;;;;5003926;28;91616;-85
2023/04/20 08:11:44;;;;;;;12.68;4.00;;;20.60;59.70;;;;;;4988836;28;88357;-85
2023/04/20 08:14:13;;;;;;;11.73;4.13;;;20.60;59.90;;;;;;4986928;28;88073;-85
2023/04/20 08:16:39;;;;;;;11.07;4.50;;;20.60;60.20;;;;;;4990766;28;87631;-85
2023/04/20 08:19:09;;;;;;;12.00;4.70;;;20.60;60.60;;;;;;5005778;28;91853;-87
2023/04/20 08:21:38;;;;;;;;;;;20.50;60.60;;;;;;4991507;28;92296;-87
2023/04/20 08:24:04;;;;;;;10.48;4.35;;;20.40;60.80;;;;;;4987777;28;87170;-89
2023/04/20 08:26:31;;;;;;;11.15;4.10;;;20.40;61.00;;;;;;5005159;28;90452;-88
2023/04/20 08:33:18;;;;;;;12.93;4.50;;;20.40;61.30;;;;;;4990201;28;86981;-89
2023/04/20 08:35:44;;;;;;;12.43;5.13;;;20.40;61.20;;;;;;4990205;28;87612;-90
2023/04/20 08:38:10;;;;;;;11.25;4.10;;;20.30;61.30;;;;;;4991536;28;87534;-87
2023/04/20 08:40:36;;;;;;;10.07;3.53;;;20.30;61.60;;;;;;4979974;28;88703;-88
2023/04/20 08:43:02;;;;;;;9.02;4.00;;;20.30;61.30;;;;;;4991698;28;91999;-88
2023/04/20 08:45:48;;;;;;;8.40;4.20;;;20.30;61.50;;;;;;4993359;28;87268;-85
2023/04/20 08:48:16;;;;;;;11.77;4.20;;;20.30;61.40;;;;;;4990551;28;93577;-86
2023/04/20 08:50:42;;;;;;;12.80;3.97;;;20.40;61.30;;;;;;5008146;28;89341;-88
2023/04/20 08:53:08;;;;;;;11.40;4.53;;;20.40;61.10;;;;;;5007781;28;91269;-86
2023/04/20 08:55:36;;;;;;;13.88;4.30;;;20.50;61.30;;;;;;4991991;28;87093;-87
2023/04/20 08:58:02;;;;;;;10.43;3.75;;;20.60;60.60;;;;;;4992427;28;86630;-87
2023/04/20 09:00:28;;;;;;;7.75;4.00;;;20.60;60.50;;;;;;4994613;28;87987;-87
2023/04/20 09:02:55;;;;;;;6.95;3.38;;;20.60;60.60;;;;;;4993420;28;88810;-88
2023/04/20 09:05:26;;;;;;;8.68;4.13;;;20.60;60.80;;;;;;4991898;28;88258;-86
2023/04/20 09:11:24;;;;;;;6.57;3.92;;;20.60;60.20;;;;;;4991134;28;87254;-87
2023/04/20 09:14:13;;;;;;;10.07;4.00;;;20.60;60.50;;;;;;4993204;28;87463;-88
2023/04/20 09:16:50;;;;;;;10.48;4.50;;;20.60;60.50;;;;;;4993029;28;87402;-88
2023/04/20 09:19:24;;;;;;;8.77;4.03;;;20.60;60.70;;;;;;4993403;28;87292;-86
2023/04/20 09:21:51;;;;;;;9.13;4.20;;;20.60;60.60;;;;;;4994699;28;87524;-86
2023/04/20 09:24:22;;;;;;;8.25;3.53;;;20.60;60.70;;;;;;4991552;28;91099;-87
2023/04/20 09:26:48;;;;;;;8.57;3.90;;;20.50;60.70;;;;;;4992401;28;86969;-87
2023/04/20 09:29:22;;;;;;;9.60;3.65;;;20.50;61.00;;;;;;4992062;28;87314;-87
2023/04/20 09:31:49;;;;;;;7.63;4.00;;;20.50;60.90;;;;;;4991036;28;90341;-88
2023/04/20 09:34:14;;;;;;;10.00;3.72;;;20.50;60.90;;;;;;5008171;28;90024;-87
2023/04/20 09:36:44;;;;;;;10.10;4.28;;;20.50;61.20;;;;;;4991864;28;87409;-88
2023/04/20 09:39:13;;;;;;;9.52;3.97;;;20.60;60.10;;;;;;5009462;28;88404;-89
2023/04/20 09:41:40;;;;;;;7.90;4.18;;;20.50;60.60;;;;;;5007510;28;89674;-86
2023/04/20 09:44:07;;;;;;;8.23;4.85;;;20.50;60.50;;;;;;5008282;28;90304;-88
2023/04/20 09:46:37;;;;;;;8.15;4.30;;;20.60;59.50;;;;;;4993265;28;86850;-88
2023/04/20 09:49:07;;;;;;;9.40;4.63;;;20.60;59.60;;;;;;4983681;28;89747;-89
2023/04/20 09:51:35;;;;;;;10.02;3.88;;;20.70;59.60;;;;;;5007865;28;90360;-89
2023/04/20 09:54:03;;;;;;;8.68;3.92;;;20.70;60.00;;;;;;4979944;28;90711;-89
2023/04/20 09:56:29;;;;;;;10.52;4.05;;;20.70;60.30;;;;;;4963640;28;88175;-89
2023/04/20 09:58:56;;;;;;;11.32;3.97;;;20.70;60.20;;;;;;4971390;28;89100;-89
2023/04/20 10:01:23;;;;;;;5.82;3.67;;;20.70;60.20;;;;;;4980087;28;89440;-88
2023/04/20 10:03:50;;;;;;;9.18;4.03;;;20.70;60.40;;;;;;4980197;28;87575;-90
2023/04/20 10:06:23;;;;;;;7.15;3.92;;;20.70;60.60;;;;;;4981243;28;87149;-88
2023/04/20 10:08:50;;;;;;;7.35;4.68;;;20.70;60.70;;;;;;4949895;28;88482;-90
2023/04/20 10:11:28;;;;;;;9.77;4.75;;;20.70;60.80;;;;;;4951294;28;87882;-89
2023/04/20 10:13:54;;;;;;;7.57;3.78;;;20.60;60.70;;;;;;4950163;28;88163;-90
2023/04/20 10:16:20;;;;;;;9.60;4.43;;;20.60;60.90;;;;;;4950724;28;87139;-86
2023/04/20 10:18:56;;;;;;;7.65;4.13;;;20.60;60.90;;;;;;4950604;28;87550;-87
2023/04/20 10:21:22;;;;;;;10.02;4.72;;;20.60;60.50;;;;;;4949790;28;89441;-87
2023/04/20 10:23:57;;;;;;;8.63;4.38;;;20.70;60.10;;;;;;4951742;28;92165;-89
2023/04/20 10:26:34;;;;;;;8.73;4.70;;;20.70;60.60;;;;;;4987817;28;87664;-88
2023/04/20 10:28:59;;;;;;;7.20;4.25;;;20.70;60.70;;;;;;4972477;28;88929;-89
2023/04/20 10:31:40;;;;;;;9.75;4.95;;;20.80;60.90;;;;;;4972633;28;91460;-89
2023/04/20 10:34:07;;;;;;;7.60;4.07;;;20.90;60.40;;;;;;4990273;28;88236;-90
2023/04/20 10:36:37;;;;;;;5.95;3.38;;;21.00;60.20;;;;;;4976716;28;87032;-90
2023/04/20 10:39:17;;;;;;;10.55;4.07;;;21.10;59.70;;;;;;4976635;28;93560;-90
2023/04/20 10:41:54;;;;;;;7.57;3.53;;;21.10;59.60;;;;;;4992869;28;87490;-91
2023/04/20 10:44:20;;;;;;;12.73;4.13;;;21.20;59.30;;;;;;4993944;28;87734;-91
2023/04/20 10:46:53;;;;;;;6.47;4.38;;;21.20;59.00;;;;;;4989698;28;88019;-92
2023/04/20 10:49:24;;;;;;;8.00;4.38;;;21.20;58.80;;;;;;5003099;28;89753;-91
2023/04/20 10:51:51;;;;;;;9.45;4.07;;;21.20;58.70;;;;;;4989909;28;88751;-92
2023/04/20 10:54:17;;;;;;;7.80;4.10;;;21.20;58.80;;;;;;5005030;28;88800;-91
2023/04/20 10:56:44;;;;;;;7.28;3.97;;;21.20;58.80;;;;;;4984224;28;87017;-91
2023/04/20 10:59:14;;;;;;;7.43;4.15;;;21.20;59.00;;;;;;4988036;28;88063;-92
2023/04/20 11:01:41;;;;;;;7.22;4.40;;;21.20;59.10;;;;;;4985601;28;90128;-92
2023/04/20 11:04:31;;;;;;;6.75;4.35;;;21.10;59.20;;;;;;4986375;28;86398;-92
2023/04/20 11:07:03;;;;;;;;;;;21.10;59.00;;;;;;5005991;28;86877;-92
2023/04/20 11:09:29;;;;;;;6.95;4.35;;;21.10;59.30;;;;;;5011578;28;89358;-92
2023/04/20 11:11:59;;;;;;;6.00;3.85;;;21.00;58.90;;;;;;5002594;28;91660;-91
2023/04/20 11:18:07;;;;;;;7.45;4.25;;;21.00;58.80;;;;;;4953073;28;87011;-91
2023/04/20 11:20:32;;;;;;;6.53;3.95;;;20.90;58.70;;;;;;4949923;28;87347;-90
2023/04/20 11:22:58;;;;;;;5.57;3.95;;;21.00;59.20;;;;;;4948408;28;88738;-89
2023/04/20 11:25:25;;;;;;;7.22;3.90;;;21.10;59.10;;;;;;4949165;28;88297;-90
2023/04/20 11:27:51;;;;;;;8.88;5.32;;;21.10;59.20;;;;;;4947947;28;93673;-92
2023/04/20 11:30:17;;;;;;;8.98;4.88;;;21.30;67.50;;;;;;4951489;28;88968;-92
2023/04/20 11:32:52;;;;;;;210.75;65.97;;;21.30;60.70;;;;;;4940706;28;90266;-91
2023/04/20 11:35:18;;;;;;;100.50;33.20;;;21.40;59.90;;;;;;4939810;28;91020;-94
2023/04/20 11:37:56;;;;;;;62.05;23.77;;;21.50;59.50;;;;;;4952036;28;88386;-92
2023/04/20 11:40:42;;;;;;;63.20;21.92;;;21.70;58.90;;;;;;4904563;28;87479;-92
2023/04/20 11:43:08;;;;;;;46.80;18.73;;;21.70;58.90;;;;;;4905513;28;91452;-92
2023/04/20 11:45:53;;;;;;;48.38;19.98;;;21.70;59.00;;;;;;4913153;28;87776;-93
2023/04/20 11:48:19;;;;;;;54.60;19.92;;;21.70;58.90;;;;;;4911026;28;87405;-95
2023/04/20 11:50:46;;;;;;;45.65;19.25;;;21.70;58.30;;;;;;4909342;28;87297;-93
2023/04/20 11:53:13;;;;;;;39.80;17.60;;;21.70;57.60;;;;;;4909912;28;91627;-92
2023/04/20 11:55:40;;;;;;;46.08;18.83;;;21.80;58.20;;;;;;4942198;28;90027;-92
2023/04/20 11:58:07;;;;;;;41.40;16.60;;;21.80;58.50;;;;;;4954411;28;93162;-87
2023/04/20 12:00:33;;;;;;;37.03;15.18;;;21.90;58.50;;;;;;4954916;28;87355;-90
2023/04/20 12:03:00;;;;;;;36.80;14.00;;;21.80;57.00;;;;;;4946004;28;91186;-90
2023/04/20 12:05:27;;;;;;;24.77;12.48;;;21.60;56.40;;;;;;4949312;28;90661;-91
2023/04/20 12:07:52;;;;;;;23.73;10.57;;;21.50;56.00;;;;;;4943516;28;87821;-93
2023/04/20 12:10:18;;;;;;;25.83;10.10;;;21.50;54.70;;;;;;4950243;28;89921;-92
2023/04/20 12:12:44;;;;;;;26.80;11.77;;;21.40;54.70;;;;;;4951468;28;90030;-93
2023/04/20 12:15:10;;;;;;;29.10;11.65;;;21.30;55.20;;;;;;4955932;28;89985;-92
2023/04/20 12:17:36;;;;;;;27.50;11.00;;;21.30;56.10;;;;;;4963482;28;87610;-90
2023/04/20 12:20:04;;;;;;;25.02;10.88;;;21.30;55.80;;;;;;4977373;28;89540;-92
2023/04/20 12:22:30;;;;;;;25.38;11.27;;;21.30;56.10;;;;;;4976106;28;90563;-93
2023/04/20 12:24:56;;;;;;;28.98;10.82;;;21.30;56.40;;;;;;5003872;28;90098;-92
2023/04/20 12:27:24;;;;;;;28.90;11.68;;;21.20;56.40;;;;;;5002749;28;88577;-91
2023/04/20 12:29:51;;;;;;;23.02;11.02;;;21.20;56.60;;;;;;5003352;28;89258;-90
2023/04/20 12:32:16;;;;;;;24.63;10.43;;;21.20;56.80;;;;;;5003077;28;90218;-93
2023/04/20 12:34:42;;;;;;;25.10;10.50;;;21.20;56.90;;;;;;5002715;28;90794;-93
2023/04/20 12:37:08;;;;;;;21.25;10.30;;;21.20;57.20;;;;;;5006164;28;87290;-93
2023/04/20 12:39:34;;;;;;;25.60;11.13;;;21.20;57.40;;;;;;5005442;28;89359;-91
2023/04/20 12:42:05;;;;;;;28.90;11.60;;;21.10;57.40;;;;;;5007532;28;90243;-91
2023/04/20 12:44:31;;;;;;;21.98;10.25;;;21.10;57.40;;;;;;5006761;28;88480;-96
2023/04/20 12:46:57;;;;;;;25.10;10.85;;;21.10;57.60;;;;;;5016279;28;87670;-96
2023/04/20 12:49:23;;;;;;;19.95;10.25;;;21.00;57.70;;;;;;4981900;28;88840;-96
2023/04/20 12:51:49;;;;;;;20.38;10.18;;;21.00;57.90;;;;;;4971096;28;92316;-93
2023/04/20 12:54:14;;;;;;;25.33;10.63;;;21.00;58.00;;;;;;4960049;28;91839;-93
2023/04/20 12:56:40;;;;;;;25.38;11.50;;;21.00;58.30;;;;;;4980796;28;90093;-94
2023/04/20 12:59:06;;;;;;;28.77;11.27;;;21.10;58.20;;;;;;4960218;28;88135;-94
2023/04/20 13:01:32;;;;;;;21.60;10.38;;;21.00;58.30;;;;;;4943128;28;91003;-96
2023/04/20 13:03:57;;;;;;;22.98;11.32;;;21.10;58.20;;;;;;4943522;28;89195;-93
2023/04/20 13:06:23;;;;;;;21.20;10.57;;;21.10;58.20;;;;;;4960603;28;87010;-93
2023/04/20 13:08:49;;;;;;;18.73;10.00;;;21.10;58.30;;;;;;4945732;28;89743;-94
2023/04/20 13:11:16;;;;;;;20.02;11.02;;;21.10;58.40;;;;;;4936993;28;91183;-94
2023/04/20 13:13:42;;;;;;;19.92;10.13;;;21.20;58.40;;;;;;4943002;28;91120;-93
2023/04/20 13:16:08;;;;;;;20.83;9.98;;;21.10;58.50;;;;;;4942931;28;88162;-94
2023/04/20 13:18:34;;;;;;;22.65;10.02;;;21.20;58.70;;;;;;4943111;28;87995;-94
2023/04/20 13:21:00;;;;;;;19.77;9.90;;;21.10;58.60;;;;;;4936945;28;91432;-91
2023/04/20 13:23:25;;;;;;;21.08;10.77;;;21.20;58.60;;;;;;4955189;28;89788;-95